NCAR-RAP Real-Time Weather Data

Output produced by METARs form (26 September 2017  14:28 UTC)
found at http://weather.rap.ucar.edu/surface/
 
Conditions at: KLOU observed 26 September 2017  13:53 UTC
Temperature: 24.4°C (76°F)
Dewpoint: 20.6°C (69°F) [RH = 79%]
Pressure (altimeter): 30.04 inches Hg (1017.4 mb)
[Sea-level pressure: 1016.6 mb]
Winds: from the SSE (150 degrees) at 3 MPH (3 knots; 1.6 m/s)
Visibility: 9 miles (14 km)
Ceiling: at least 12,000 feet AGL
Clouds: sky clear below 12,000 feet AGL
Present Weather: no significant weather observed at this time
KLOU 261353Z 15003KT 9SM CLR 24/21 A3004 RMK AO2 SLP166 T02440206